Terminal Aerodrome Forecast
Issued by NWS

Home | Current Version | Previous Version | Text Only | Print | Product List | Glossary On
Versions: 1 2 3 4 5 6 7 8 9 10 11 12 13 14 15 16 17
000
FTUS46 KLOX 042340
TAFVNY
TAF
KVNY 042340Z 0500/0524 17010KT P6SM SKC
     FM050300 14005KT P6SM SKC
     FM050700 VRB03KT P6SM OVC025
     FM051600 15004KT P6SM OVC035
     FM052000 17009KT P6SM SKC=

USA.gov is the U.S. government's official web portal to all federal, state and local government web resources and services.